Time;durP1;ratioP1;P1;durP2;ratioP2;P2;SDS_P1;SDS_P2;PMS_P1;PMS_P2;Temp;Humidity;BMP_temperature;BMP_pressure;BME280_temperature;BME280_humidity;BME280_pressure;Samples;Min_cycle;Max_cycle;Signal;HPM_P1;HPM_P2
2023/10/22 09:29:53;;;;;;;1.67;0.60;;;15.00;99.90;;;;;;2107558;23;20251;-76
2023/10/22 09:32:21;;;;;;;0.83;0.60;;;14.90;99.90;;;;;;4862837;29;20230;-74
2023/10/22 09:34:48;;;;;;;1.27;0.67;;;14.90;99.90;;;;;;4867106;29;20291;-75
2023/10/22 09:37:15;;;;;;;1.17;0.70;;;14.80;99.90;;;;;;4877037;29;20315;-73
2023/10/22 09:39:43;;;;;;;1.60;0.80;;;14.80;99.90;;;;;;4861462;29;20239;-74
2023/10/22 09:42:12;;;;;;;2.07;0.90;;;14.60;99.90;;;;;;4861702;29;20674;-74
2023/10/22 09:44:40;;;;;;;0.97;0.60;;;14.60;99.90;;;;;;4861948;29;20262;-74
2023/10/22 09:47:08;;;;;;;2.40;0.80;;;14.60;99.90;;;;;;4865680;29;20227;-73
2023/10/22 09:49:38;;;;;;;4.07;0.80;;;14.80;99.90;;;;;;4861791;29;20219;-74
2023/10/22 09:52:07;;;;;;;2.97;0.90;;;14.90;99.90;;;;;;4861508;29;20222;-74
2023/10/22 09:54:38;;;;;;;1.17;0.70;;;14.90;99.90;;;;;;4861599;29;20705;-75
2023/10/22 09:57:09;;;;;;;4.47;1.63;;;15.00;99.90;;;;;;4861461;29;20227;-71
2023/10/22 09:59:37;;;;;;;2.80;0.93;;;15.10;99.90;;;;;;4861692;29;20330;-71
2023/10/22 10:02:05;;;;;;;0.93;0.73;;;15.20;99.90;;;;;;4861383;29;20238;-72
2023/10/22 10:04:37;;;;;;;2.07;0.77;;;15.30;99.90;;;;;;4861294;29;20563;-72
2023/10/22 10:07:04;;;;;;;1.50;0.90;;;15.20;99.90;;;;;;4860952;29;20231;-72
2023/10/22 10:09:33;;;;;;;1.53;0.90;;;15.10;99.90;;;;;;4861150;29;20237;-70
2023/10/22 10:12:01;;;;;;;1.47;0.80;;;15.20;99.90;;;;;;4861293;29;20208;-70
2023/10/22 10:14:43;;;;;;;1.37;1.00;;;15.20;99.90;;;;;;4861102;29;20220;-74
2023/10/22 10:17:10;;;;;;;3.33;1.60;;;15.40;99.90;;;;;;4861030;29;20714;-71
2023/10/22 10:19:39;;;;;;;2.50;1.43;;;15.50;99.90;;;;;;4861062;29;20327;-73
2023/10/22 10:22:06;;;;;;;2.83;1.20;;;15.70;99.90;;;;;;4861222;29;20253;-71
2023/10/22 10:24:34;;;;;;;1.07;0.80;;;15.90;99.90;;;;;;4874298;29;20294;-72
2023/10/22 10:27:28;;;;;;;1.90;0.70;;;15.80;99.90;;;;;;4867839;29;20322;-73
2023/10/22 10:30:20;;;;;;;1.57;0.80;;;15.80;99.90;;;;;;4860469;29;20672;-72
2023/10/22 10:32:49;;;;;;;1.07;0.77;;;16.00;99.90;;;;;;4861185;29;20217;-72
2023/10/22 10:35:19;;;;;;;0.97;0.73;;;16.20;99.90;;;;;;4861347;29;20212;-73
2023/10/22 10:38:22;;;;;;;1.73;0.73;;;16.30;99.90;;;;;;4860975;29;20238;-73
2023/10/22 10:40:50;;;;;;;1.73;0.60;;;16.50;99.90;;;;;;4831526;29;20244;-73
2023/10/22 10:43:17;;;;;;;1.27;0.60;;;16.50;99.90;;;;;;4860541;29;20271;-73
2023/10/22 10:46:22;;;;;;;1.17;0.60;;;16.60;99.90;;;;;;4857642;29;20638;-73
2023/10/22 10:48:49;;;;;;;0.50;0.50;;;16.50;99.90;;;;;;4860319;29;20672;-73
2023/10/22 10:51:19;;;;;;;1.13;0.53;;;16.50;99.90;;;;;;4859472;29;20219;-73
2023/10/22 10:54:17;;;;;;;0.70;0.60;;;16.40;99.90;;;;;;4865136;29;20211;-73
2023/10/22 10:56:48;;;;;;;0.80;0.50;;;16.20;99.90;;;;;;4818873;29;20338;-73
2023/10/22 10:59:30;;;;;;;1.10;0.60;;;16.00;99.90;;;;;;4859873;29;20236;-73
2023/10/22 11:02:06;;;;;;;2.07;0.73;;;16.10;99.90;;;;;;4860126;29;20247;-73
2023/10/22 11:04:35;;;;;;;0.80;0.57;;;16.10;99.90;;;;;;4860009;29;20236;-73
2023/10/22 11:07:04;;;;;;;1.80;0.60;;;16.30;99.90;;;;;;4859914;29;20238;-73
2023/10/22 11:09:34;;;;;;;1.03;0.60;;;16.50;99.90;;;;;;4860335;29;20223;-73
2023/10/22 11:12:04;;;;;;;0.80;0.40;;;16.90;99.90;;;;;;4860159;29;20212;-73
2023/10/22 11:14:32;;;;;;;1.48;0.50;;;17.00;99.90;;;;;;4859201;29;20218;-73
2023/10/22 11:16:59;;;;;;;0.93;0.50;;;17.20;99.90;;;;;;4859419;29;20228;-73
2023/10/22 11:19:28;;;;;;;2.15;0.40;;;17.20;99.90;;;;;;4859422;29;20295;-72
2023/10/22 11:21:56;;;;;;;2.03;0.70;;;17.50;99.90;;;;;;4860139;29;20247;-73
2023/10/22 11:24:26;;;;;;;0.40;0.40;;;17.50;99.90;;;;;;4860098;29;20299;-73
2023/10/22 11:26:54;;;;;;;0.85;0.45;;;17.50;99.90;;;;;;4859964;29;20639;-73
2023/10/22 11:29:21;;;;;;;0.50;0.40;;;17.60;99.90;;;;;;4860004;29;20239;-73
2023/10/22 11:31:56;;;;;;;1.40;0.50;;;17.40;99.90;;;;;;4860051;29;20218;-73
2023/10/22 11:34:23;;;;;;;0.60;0.30;;;17.30;99.90;;;;;;4859617;29;20255;-73
2023/10/22 11:36:57;;;;;;;0.60;0.40;;;17.10;99.90;;;;;;4860316;29;20318;-73
2023/10/22 11:39:34;;;;;;;0.40;0.40;;;17.30;99.90;;;;;;4860077;29;20216;-74
2023/10/22 11:42:02;;;;;;;1.25;0.82;;;17.20;99.90;;;;;;4860002;29;20238;-73
2023/10/22 11:44:31;;;;;;;0.65;0.45;;;17.10;99.90;;;;;;4859584;29;20216;-73
2023/10/22 11:46:59;;;;;;;2.10;0.40;;;17.10;99.90;;;;;;4859532;29;20228;-73
2023/10/22 11:49:26;;;;;;;0.45;0.35;;;17.00;99.90;;;;;;4859784;29;20303;-73
2023/10/22 11:51:53;;;;;;;1.10;0.40;;;17.00;99.90;;;;;;4860152;29;20232;-73
2023/10/22 11:54:20;;;;;;;0.37;0.37;;;16.90;99.90;;;;;;4859892;29;20236;-73
2023/10/22 11:56:48;;;;;;;0.68;0.40;;;16.90;99.90;;;;;;4861073;29;20274;-73
2023/10/22 11:59:15;;;;;;;2.73;0.60;;;16.70;99.90;;;;;;4861520;29;20236;-73
2023/10/22 12:01:42;;;;;;;1.03;0.67;;;16.40;99.90;;;;;;4863367;29;20275;-73
2023/10/22 12:04:09;;;;;;;6.30;1.17;;;16.30;99.90;;;;;;4863515;29;20243;-72
2023/10/22 12:06:36;;;;;;;1.03;0.50;;;16.30;99.90;;;;;;4862677;29;20627;-73
2023/10/22 12:09:03;;;;;;;1.70;0.40;;;16.30;99.90;;;;;;4863034;29;20247;-73
2023/10/22 12:11:30;;;;;;;0.80;0.37;;;16.40;99.90;;;;;;4863011;29;20264;-73
2023/10/22 12:13:58;;;;;;;1.80;0.40;;;16.40;99.90;;;;;;4863093;29;20227;-73
2023/10/22 12:16:25;;;;;;;0.83;0.60;;;16.20;99.90;;;;;;4861331;29;20319;-73
2023/10/22 12:18:52;;;;;;;0.57;0.40;;;16.20;99.90;;;;;;4862912;29;20270;-73
2023/10/22 12:21:19;;;;;;;0.97;0.50;;;16.20;99.90;;;;;;4862594;29;20239;-73
2023/10/22 12:23:46;;;;;;;0.70;0.60;;;16.20;99.90;;;;;;4862613;29;20247;-73
2023/10/22 12:26:13;;;;;;;0.30;0.30;;;16.30;99.90;;;;;;4862363;29;20243;-73
2023/10/22 12:28:41;;;;;;;0.60;0.30;;;16.50;99.90;;;;;;4862794;29;20264;-73
2023/10/22 12:31:10;;;;;;;0.77;0.50;;;16.70;99.90;;;;;;4862270;29;20307;-73
2023/10/22 12:33:36;;;;;;;0.65;0.50;;;16.70;99.90;;;;;;4863042;29;20251;-73
2023/10/22 12:36:04;;;;;;;1.75;0.38;;;16.90;99.90;;;;;;4862186;29;20299;-73
2023/10/22 12:38:32;;;;;;;2.45;0.98;;;17.10;99.90;;;;;;4862850;29;20277;-73
2023/10/22 12:40:59;;;;;;;2.92;0.50;;;17.40;99.90;;;;;;4862261;29;20283;-73
2023/10/22 12:43:26;;;;;;;0.52;0.47;;;17.50;99.90;;;;;;4862269;29;20208;-73
2023/10/22 12:45:53;;;;;;;0.73;0.40;;;17.40;99.90;;;;;;4861938;29;20304;-73
2023/10/22 12:48:22;;;;;;;0.50;0.30;;;17.50;99.90;;;;;;4862175;29;20318;-72
2023/10/22 12:50:49;;;;;;;0.75;0.40;;;17.70;99.90;;;;;;4862026;29;20239;-72
2023/10/22 12:53:16;;;;;;;1.10;0.30;;;17.80;99.90;;;;;;4861893;29;20303;-72
2023/10/22 12:55:51;;;;;;;1.13;0.43;;;17.90;99.90;;;;;;4858017;29;20303;-71
2023/10/22 12:58:18;;;;;;;0.30;0.25;;;17.90;99.90;;;;;;4862434;29;20236;-72
2023/10/22 13:00:45;;;;;;;0.70;0.30;;;17.90;99.90;;;;;;4863082;29;20672;-72
2023/10/22 13:03:12;;;;;;;0.52;0.30;;;18.00;99.90;;;;;;4880095;29;20247;-72
2023/10/22 13:05:41;;;;;;;0.40;0.25;;;18.00;99.90;;;;;;4861690;29;20304;-73
2023/10/22 13:08:09;;;;;;;0.93;0.45;;;18.00;99.90;;;;;;4842680;29;20240;-72
2023/10/22 13:10:36;;;;;;;0.70;0.30;;;17.80;99.90;;;;;;4844037;29;20220;-72
2023/10/22 13:13:03;;;;;;;0.50;0.28;;;17.80;99.90;;;;;;4847525;29;20244;-71
2023/10/22 13:15:30;;;;;;;0.88;0.20;;;17.70;99.90;;;;;;4864273;29;20248;-72
2023/10/22 13:17:57;;;;;;;0.80;0.45;;;17.70;99.90;;;;;;4842434;29;20228;-73
2023/10/22 13:20:24;;;;;;;1.08;0.40;;;17.90;99.90;;;;;;4843918;29;20793;-72
2023/10/22 13:22:52;;;;;;;0.88;0.50;;;17.90;99.90;;;;;;4843657;29;20637;-71
2023/10/22 13:25:19;;;;;;;0.77;0.30;;;17.90;99.90;;;;;;4850484;29;20299;-73
2023/10/22 13:27:46;;;;;;;1.80;0.40;;;18.00;99.90;;;;;;4861833;29;20315;-72
2023/10/22 13:30:13;;;;;;;1.35;0.40;;;18.00;99.90;;;;;;4861797;29;20251;-71
2023/10/22 13:32:40;;;;;;;0.40;0.30;;;17.90;99.90;;;;;;4861235;29;20250;-73
2023/10/22 13:35:08;;;;;;;1.27;0.50;;;17.70;99.90;;;;;;4861790;29;20308;-72
2023/10/22 13:37:36;;;;;;;0.50;0.30;;;17.70;99.90;;;;;;4861932;29;20239;-71
2023/10/22 13:40:04;;;;;;;0.73;0.30;;;17.70;99.90;;;;;;4861686;29;20668;-70
2023/10/22 13:42:31;;;;;;;0.30;0.30;;;17.60;99.90;;;;;;4861816;29;20212;-69
2023/10/22 13:44:58;;;;;;;1.42;0.60;;;17.60;99.90;;;;;;4861938;29;20303;-69
2023/10/22 13:47:25;;;;;;;2.88;1.00;;;17.60;99.90;;;;;;4861516;29;20263;-70
2023/10/22 13:49:52;;;;;;;2.30;0.98;;;17.60;99.90;;;;;;4861956;29;20298;-70
2023/10/22 13:52:19;;;;;;;4.25;1.17;;;17.50;99.90;;;;;;4862033;29;20302;-70
2023/10/22 13:54:46;;;;;;;1.13;0.75;;;17.60;99.90;;;;;;4861782;29;20239;-70
2023/10/22 13:57:14;;;;;;;1.60;1.20;;;17.70;99.90;;;;;;4861842;29;20314;-71
2023/10/22 13:59:41;;;;;;;1.05;0.68;;;17.60;99.90;;;;;;4861571;29;20353;-69
2023/10/22 14:02:08;;;;;;;0.63;0.40;;;17.40;99.90;;;;;;4861199;29;20293;-69
2023/10/22 14:04:34;;;;;;;0.57;0.40;;;17.20;99.90;;;;;;4861776;29;20257;-69
2023/10/22 14:07:01;;;;;;;2.20;0.67;;;17.10;99.90;;;;;;4861299;29;20318;-71
2023/10/22 14:09:28;;;;;;;1.07;0.60;;;17.10;99.90;;;;;;4861256;29;20676;-71
2023/10/22 14:11:55;;;;;;;1.47;0.50;;;16.90;99.90;;;;;;4860262;29;20295;-71
2023/10/22 14:14:23;;;;;;;0.83;0.43;;;16.80;99.90;;;;;;4860224;29;20295;-71
2023/10/22 14:16:50;;;;;;;1.57;0.40;;;16.90;99.90;;;;;;4860743;29;20326;-71
2023/10/22 14:19:17;;;;;;;2.40;0.67;;;16.90;99.90;;;;;;4861056;29;20243;-71
2023/10/22 14:21:44;;;;;;;1.00;0.60;;;16.90;99.90;;;;;;4861218;29;20286;-71
2023/10/22 14:24:11;;;;;;;3.03;0.50;;;16.90;99.90;;;;;;4861103;29;20211;-71
2023/10/22 14:26:38;;;;;;;2.40;0.40;;;16.80;99.90;;;;;;4861279;29;20381;-71
2023/10/22 14:29:05;;;;;;;1.63;0.60;;;16.80;99.90;;;;;;4861256;29;20257;-70
2023/10/22 14:31:33;;;;;;;1.83;0.53;;;16.70;99.90;;;;;;4860572;29;20246;-71
2023/10/22 14:34:00;;;;;;;0.70;0.40;;;16.50;99.90;;;;;;4861083;29;20219;-71
2023/10/22 14:36:27;;;;;;;1.97;0.60;;;16.40;99.90;;;;;;4861022;29;20236;-71
2023/10/22 14:38:54;;;;;;;1.33;0.33;;;16.50;99.90;;;;;;4860909;29;20303;-71
2023/10/22 14:41:21;;;;;;;0.60;0.50;;;16.60;99.90;;;;;;4860432;29;20357;-71
2023/10/22 14:43:48;;;;;;;2.03;0.60;;;16.60;99.90;;;;;;4860958;29;20273;-73
2023/10/22 14:46:14;;;;;;;0.93;0.40;;;16.60;99.90;;;;;;4860794;29;20247;-71
2023/10/22 14:48:43;;;;;;;0.93;0.63;;;16.60;99.90;;;;;;4860931;29;20298;-71
2023/10/22 14:51:10;;;;;;;1.33;0.50;;;16.60;99.90;;;;;;4861125;29;20212;-71
2023/10/22 14:53:36;;;;;;;2.40;0.83;;;16.60;99.90;;;;;;4861028;29;20244;-71
2023/10/22 14:56:05;;;;;;;1.13;0.50;;;16.60;99.90;;;;;;4860814;29;20299;-72
2023/10/22 14:58:32;;;;;;;1.50;0.77;;;16.60;99.90;;;;;;4860784;29;20583;-71
2023/10/22 15:01:02;;;;;;;0.88;0.50;;;16.60;99.90;;;;;;4860259;29;20331;-71
2023/10/22 15:03:29;;;;;;;1.33;0.40;;;16.50;99.90;;;;;;4860749;29;20548;-70
2023/10/22 15:05:57;;;;;;;2.45;0.80;;;16.40;99.90;;;;;;4860786;29;20349;-71
2023/10/22 15:08:24;;;;;;;1.60;0.50;;;16.40;99.90;;;;;;4860593;29;20278;-72
2023/10/22 15:10:51;;;;;;;0.68;0.40;;;16.40;99.90;;;;;;4860433;29;20319;-71
2023/10/22 15:13:18;;;;;;;1.00;0.40;;;16.40;99.90;;;;;;4860585;29;20219;-72
2023/10/22 15:15:47;;;;;;;1.23;0.50;;;16.40;99.90;;;;;;4860582;29;20310;-71
2023/10/22 15:18:15;;;;;;;1.97;0.60;;;16.30;99.90;;;;;;4860480;29;20299;-71
2023/10/22 15:20:44;;;;;;;1.17;0.50;;;16.20;99.90;;;;;;4860620;29;20660;-72
2023/10/22 15:23:12;;;;;;;3.80;0.40;;;16.30;99.90;;;;;;4860474;29;20976;-72
2023/10/22 15:25:44;;;;;;;2.73;0.63;;;16.30;99.90;;;;;;4860043;29;20262;-72
2023/10/22 15:28:11;;;;;;;2.93;0.60;;;16.40;99.90;;;;;;4861285;29;20292;-71
2023/10/22 15:30:38;;;;;;;1.40;0.70;;;16.50;99.90;;;;;;4860535;29;20703;-71
2023/10/22 15:33:05;;;;;;;1.50;0.70;;;16.50;99.90;;;;;;4860159;29;20254;-71
2023/10/22 15:35:32;;;;;;;2.30;0.70;;;16.50;99.90;;;;;;4860665;29;20247;-71
2023/10/22 15:38:00;;;;;;;0.57;0.57;;;16.40;99.90;;;;;;4863984;29;20775;-72
2023/10/22 15:40:29;;;;;;;1.80;0.80;;;16.20;99.90;;;;;;4864033;29;20255;-71
2023/10/22 15:42:57;;;;;;;2.00;0.77;;;16.10;99.90;;;;;;4864318;29;20607;-71
2023/10/22 15:45:25;;;;;;;3.33;0.90;;;16.00;99.90;;;;;;4864189;29;20248;-72
2023/10/22 15:47:52;;;;;;;1.03;0.60;;;15.80;99.90;;;;;;4863950;29;20323;-72
2023/10/22 15:50:20;;;;;;;1.83;0.83;;;15.80;99.90;;;;;;4864057;29;20629;-72
2023/10/22 15:52:47;;;;;;;2.33;1.10;;;15.70;99.90;;;;;;4863771;29;20303;-71
2023/10/22 15:55:14;;;;;;;4.07;1.80;;;15.60;99.90;;;;;;4864042;29;20298;-71
2023/10/22 15:57:42;;;;;;;3.97;2.00;;;15.60;99.90;;;;;;4864122;29;20655;-71
2023/10/22 16:00:11;;;;;;;2.67;1.57;;;15.60;99.90;;;;;;4863846;29;20243;-72
2023/10/22 16:02:38;;;;;;;2.20;1.50;;;15.60;99.90;;;;;;4863793;29;20235;-71
2023/10/22 16:05:07;;;;;;;3.63;1.43;;;15.50;99.90;;;;;;4863849;29;20311;-70
2023/10/22 16:07:34;;;;;;;2.13;1.10;;;15.50;99.90;;;;;;4865040;29;20276;-70
2023/10/22 16:10:01;;;;;;;0.90;0.70;;;15.40;99.90;;;;;;4864460;29;20219;-69
2023/10/22 16:12:28;;;;;;;1.53;0.77;;;15.20;99.90;;;;;;4863931;29;20243;-72
2023/10/22 16:14:57;;;;;;;2.63;1.00;;;15.20;99.90;;;;;;4863683;29;20246;-70
2023/10/22 16:17:24;;;;;;;0.93;0.70;;;15.10;99.90;;;;;;4863357;29;20243;-70
2023/10/22 16:19:53;;;;;;;1.27;0.80;;;15.10;99.90;;;;;;4863647;29;20303;-70
2023/10/22 16:22:20;;;;;;;2.07;0.97;;;15.00;99.90;;;;;;4863713;29;20250;-70
2023/10/22 16:24:48;;;;;;;1.20;0.80;;;14.90;99.90;;;;;;4863494;29;20260;-70
2023/10/22 16:27:15;;;;;;;1.47;1.00;;;14.80;99.90;;;;;;4863295;29;20330;-70
2023/10/22 16:29:41;;;;;;;2.67;1.10;;;14.70;99.90;;;;;;4863339;29;20266;-70
2023/10/22 16:32:10;;;;;;;1.63;0.80;;;14.70;99.90;;;;;;4863256;29;20716;-70
2023/10/22 16:34:37;;;;;;;1.33;0.70;;;14.60;99.90;;;;;;4863347;29;20212;-69
2023/10/22 16:37:04;;;;;;;0.83;0.63;;;14.60;99.90;;;;;;4863504;29;20323;-70
2023/10/22 16:39:31;;;;;;;1.60;1.00;;;14.70;99.90;;;;;;4863321;29;20721;-69
2023/10/22 16:41:58;;;;;;;2.67;0.87;;;14.80;99.90;;;;;;4863338;29;20323;-69
2023/10/22 16:44:26;;;;;;;1.20;0.80;;;14.90;99.90;;;;;;4863291;29;20260;-69
2023/10/22 16:46:53;;;;;;;2.10;1.00;;;15.10;99.90;;;;;;4862513;29;20318;-70
2023/10/22 16:49:21;;;;;;;1.13;0.70;;;15.20;99.90;;;;;;4862293;29;20240;-70
2023/10/22 16:51:48;;;;;;;3.73;1.03;;;15.20;99.90;;;;;;4863285;29;20251;-69
2023/10/22 16:54:15;;;;;;;2.43;1.20;;;15.30;99.90;;;;;;4863041;29;20251;-70
2023/10/22 16:56:42;;;;;;;8.20;3.10;;;15.30;99.90;;;;;;4863017;29;20315;-70
2023/10/22 16:59:09;;;;;;;4.70;2.50;;;15.40;99.90;;;;;;4862999;29;20299;-70
2023/10/22 17:01:36;;;;;;;4.80;1.90;;;15.40;99.90;;;;;;4862682;29;20282;-71
2023/10/22 17:04:03;;;;;;;3.07;1.83;;;15.40;99.90;;;;;;4863140;29;20277;-71
2023/10/22 17:06:31;;;;;;;2.07;0.87;;;15.40;99.90;;;;;;4862750;29;20738;-70
2023/10/22 17:08:58;;;;;;;2.60;1.37;;;15.50;99.90;;;;;;4863178;29;20243;-71
2023/10/22 17:11:25;;;;;;;5.33;1.77;;;15.40;99.90;;;;;;4862601;29;20307;-70
2023/10/22 17:13:53;;;;;;;6.20;3.07;;;15.40;99.90;;;;;;4862578;29;20581;-70
2023/10/22 17:16:20;;;;;;;5.27;3.17;;;15.40;99.90;;;;;;4862768;29;20675;-70
2023/10/22 17:18:48;;;;;;;4.80;2.97;;;15.30;99.90;;;;;;4862437;29;20643;-70
2023/10/22 17:21:14;;;;;;;4.87;2.20;;;15.30;99.90;;;;;;4862411;29;20220;-71
2023/10/22 17:23:43;;;;;;;2.97;1.70;;;15.30;99.90;;;;;;4862596;29;20306;-70
2023/10/22 17:26:11;;;;;;;1.57;1.30;;;15.30;99.90;;;;;;4862330;29;20687;-70
2023/10/22 17:28:38;;;;;;;2.40;1.80;;;15.30;99.90;;;;;;4862247;29;20303;-70
2023/10/22 17:31:05;;;;;;;3.23;1.47;;;15.20;99.90;;;;;;4862249;29;20266;-70
2023/10/22 17:33:32;;;;;;;2.90;1.40;;;15.00;99.90;;;;;;4862510;29;20308;-70
2023/10/22 17:35:59;;;;;;;1.70;0.80;;;14.80;99.90;;;;;;4862167;29;20252;-72
2023/10/22 17:38:26;;;;;;;2.83;1.00;;;14.80;99.90;;;;;;4862395;29;20232;-71
2023/10/22 17:40:58;;;;;;;2.67;1.00;;;14.80;99.90;;;;;;4862310;29;20299;-72
2023/10/22 17:43:26;;;;;;;6.93;1.70;;;14.70;99.90;;;;;;4862181;29;20252;-72
2023/10/22 17:45:53;;;;;;;6.07;2.00;;;14.60;99.90;;;;;;4862139;29;20624;-70
2023/10/22 17:48:19;;;;;;;5.60;1.80;;;14.40;99.90;;;;;;4862134;29;20323;-72
2023/10/22 17:50:46;;;;;;;4.97;2.50;;;14.40;99.90;;;;;;4862001;29;20710;-72
2023/10/22 17:53:14;;;;;;;4.63;2.53;;;14.20;99.90;;;;;;4862098;29;20269;-73
2023/10/22 17:55:41;;;;;;;4.70;2.30;;;14.20;99.90;;;;;;4861743;29;20304;-72
2023/10/22 17:58:09;;;;;;;3.90;1.77;;;14.20;99.90;;;;;;4862065;29;20315;-70
2023/10/22 18:00:37;;;;;;;1.60;1.07;;;14.10;99.90;;;;;;4861293;29;20727;-72
2023/10/22 18:03:03;;;;;;;3.20;1.20;;;14.10;99.90;;;;;;4861825;29;20245;-71
2023/10/22 18:05:30;;;;;;;2.50;1.07;;;14.00;99.90;;;;;;4861725;29;20255;-71
2023/10/22 18:07:57;;;;;;;3.67;1.17;;;14.00;99.90;;;;;;4861529;29;20598;-71
2023/10/22 18:10:24;;;;;;;2.63;1.07;;;13.90;99.90;;;;;;4861482;29;20625;-72
2023/10/22 18:12:51;;;;;;;3.80;0.90;;;13.70;99.90;;;;;;4861647;29;20299;-72
2023/10/22 18:15:19;;;;;;;2.30;1.00;;;13.60;99.90;;;;;;4861618;29;20303;-71
2023/10/22 18:17:46;;;;;;;1.40;0.90;;;13.50;99.90;;;;;;4861544;29;20264;-71
2023/10/22 18:20:13;;;;;;;3.80;1.10;;;13.50;99.90;;;;;;4861547;29;20260;-71
2023/10/22 18:22:40;;;;;;;2.20;1.13;;;13.50;99.90;;;;;;4861406;29;20267;-70
2023/10/22 18:25:08;;;;;;;2.87;1.47;;;13.30;99.90;;;;;;4861414;29;20251;-70
2023/10/22 18:27:35;;;;;;;3.70;1.43;;;13.20;99.90;;;;;;4861306;29;20296;-70
2023/10/22 18:30:03;;;;;;;1.47;0.70;;;13.10;99.90;;;;;;4860626;29;20688;-70
2023/10/22 18:32:31;;;;;;;3.60;1.17;;;13.00;99.90;;;;;;4861042;29;20215;-69
2023/10/22 18:34:58;;;;;;;2.00;1.10;;;13.00;99.90;;;;;;4861252;29;20728;-70
2023/10/22 18:37:25;;;;;;;2.37;1.67;;;13.00;99.90;;;;;;4860706;29;20260;-70
2023/10/22 18:39:51;;;;;;;1.43;1.00;;;13.00;99.90;;;;;;4860910;29;20299;-70
2023/10/22 18:42:18;;;;;;;2.97;1.03;;;12.90;99.90;;;;;;4860869;29;20322;-71
2023/10/22 18:44:45;;;;;;;2.80;1.23;;;12.90;99.90;;;;;;4860729;29;20255;-70
2023/10/22 18:47:13;;;;;;;3.57;1.03;;;12.90;99.90;;;;;;4860779;29;20231;-70
2023/10/22 18:49:42;;;;;;;3.57;1.30;;;12.90;99.90;;;;;;4861084;29;20216;-70
2023/10/22 18:52:08;;;;;;;4.03;1.63;;;12.90;99.90;;;;;;4861053;29;20634;-70
2023/10/22 18:54:35;;;;;;;5.57;2.20;;;12.90;99.90;;;;;;4860901;29;20645;-70
2023/10/22 18:57:02;;;;;;;7.17;2.97;;;13.00;99.90;;;;;;4860789;29;20323;-70
2023/10/22 18:59:29;;;;;;;3.70;1.80;;;13.10;99.90;;;;;;4854645;29;20676;-70
2023/10/22 19:01:56;;;;;;;3.07;1.57;;;13.10;99.90;;;;;;4859882;29;20628;-70
2023/10/22 19:04:23;;;;;;;4.17;1.63;;;13.20;99.90;;;;;;4860137;29;20299;-69
2023/10/22 19:06:54;;;;;;;4.57;1.80;;;13.20;99.90;;;;;;4859876;29;20228;-70
2023/10/22 19:09:20;;;;;;;3.20;1.63;;;13.30;99.90;;;;;;4859989;29;20652;-70
2023/10/22 19:11:47;;;;;;;2.83;1.63;;;13.30;99.90;;;;;;4859797;29;20635;-69
2023/10/22 19:14:17;;;;;;;3.10;1.93;;;13.30;99.90;;;;;;4859792;29;20655;-70
2023/10/22 19:16:44;;;;;;;2.93;1.80;;;13.30;99.90;;;;;;4859644;29;20260;-70
2023/10/22 19:19:11;;;;;;;3.83;1.90;;;13.40;99.90;;;;;;4852446;29;20312;-69
2023/10/22 19:21:38;;;;;;;5.53;2.10;;;13.50;99.90;;;;;;4855008;29;20299;-69
2023/10/22 19:24:07;;;;;;;5.67;2.30;;;13.50;99.90;;;;;;4859079;29;20738;-69
2023/10/22 19:26:33;;;;;;;4.03;2.10;;;13.50;99.90;;;;;;4860019;29;20318;-70
2023/10/22 19:29:00;;;;;;;3.57;2.00;;;13.60;99.90;;;;;;4853228;29;20303;-71
2023/10/22 19:31:27;;;;;;;4.77;1.93;;;13.50;99.90;;;;;;4859661;29;20251;-71
2023/10/22 19:33:55;;;;;;;3.00;1.83;;;13.50;99.90;;;;;;4859711;29;20295;-71
2023/10/22 19:36:22;;;;;;;4.03;1.90;;;13.40;99.90;;;;;;4859696;29;20719;-71
2023/10/22 19:38:49;;;;;;;4.43;1.70;;;13.30;99.90;;;;;;4859933;29;20623;-71
2023/10/22 19:41:21;;;;;;;4.77;1.63;;;13.20;99.90;;;;;;4859679;29;20243;-71
2023/10/22 19:43:48;;;;;;;2.77;1.87;;;13.10;99.90;;;;;;4859983;29;20246;-71
2023/10/22 19:46:14;;;;;;;2.77;1.50;;;13.00;99.90;;;;;;4859735;29;20304;-70
2023/10/22 19:48:43;;;;;;;3.40;1.63;;;12.90;99.90;;;;;;4855516;29;20333;-71
2023/10/22 19:51:11;;;;;;;2.80;1.40;;;12.90;99.90;;;;;;4859576;29;20580;-71
2023/10/22 19:53:37;;;;;;;2.33;1.37;;;12.80;99.90;;;;;;4859239;29;20304;-71
2023/10/22 19:56:05;;;;;;;3.87;1.67;;;12.70;99.90;;;;;;4859857;29;20300;-71
2023/10/22 19:58:33;;;;;;;2.30;1.57;;;12.60;99.90;;;;;;4857248;29;20208;-71
2023/10/22 20:01:00;;;;;;;6.03;1.80;;;12.60;99.90;;;;;;4854544;29;20302;-71
2023/10/22 20:03:27;;;;;;;3.63;1.67;;;12.50;99.90;;;;;;4859449;29;20330;-70
2023/10/22 20:05:54;;;;;;;2.50;1.70;;;12.50;99.90;;;;;;4859644;29;20243;-71
2023/10/22 20:08:21;;;;;;;3.20;1.63;;;12.40;99.90;;;;;;4859392;29;20268;-71
2023/10/22 20:10:48;;;;;;;2.50;1.50;;;12.30;99.90;;;;;;4860382;29;20213;-71
2023/10/22 20:13:15;;;;;;;4.43;2.17;;;12.20;99.90;;;;;;4859582;29;20208;-70
2023/10/22 20:15:43;;;;;;;3.70;1.60;;;12.20;99.90;;;;;;4859645;29;20619;-71
2023/10/22 20:18:10;;;;;;;4.23;2.30;;;12.10;99.90;;;;;;4859496;29;20275;-71
2023/10/22 20:20:37;;;;;;;3.80;1.80;;;12.10;99.90;;;;;;4859253;29;20640;-71
2023/10/22 20:23:04;;;;;;;4.10;1.80;;;12.10;99.90;;;;;;4861316;29;20322;-71
2023/10/22 20:25:31;;;;;;;2.87;2.17;;;12.00;99.90;;;;;;4860503;29;20212;-71
2023/10/22 20:28:03;;;;;;;2.97;1.53;;;11.90;99.90;;;;;;4862648;29;20263;-71
2023/10/22 20:30:30;;;;;;;2.23;1.47;;;11.90;99.90;;;;;;4857702;29;20220;-71
2023/10/22 20:32:58;;;;;;;2.33;1.30;;;11.90;99.90;;;;;;4860372;29;20648;-71
2023/10/22 20:35:25;;;;;;;3.87;1.70;;;11.90;99.90;;;;;;4862876;29;20261;-71
2023/10/22 20:37:53;;;;;;;3.00;1.70;;;11.80;99.90;;;;;;4862875;29;20270;-71
2023/10/22 20:40:20;;;;;;;3.13;1.63;;;11.80;99.90;;;;;;4862463;29;20293;-71
2023/10/22 20:42:47;;;;;;;3.60;1.40;;;11.70;99.90;;;;;;4862982;29;20327;-71
2023/10/22 20:45:17;;;;;;;1.63;1.17;;;11.70;99.90;;;;;;4862605;29;20306;-72
2023/10/22 20:47:47;;;;;;;3.03;1.63;;;11.70;99.90;;;;;;4861971;29;20238;-72
2023/10/22 20:50:16;;;;;;;3.30;1.60;;;11.70;99.90;;;;;;4862911;29;20220;-71
2023/10/22 20:52:43;;;;;;;5.53;2.23;;;11.60;99.90;;;;;;4862396;29;20258;-71
2023/10/22 20:55:10;;;;;;;2.17;1.23;;;11.60;99.90;;;;;;4862293;29;20636;-72
2023/10/22 20:57:38;;;;;;;2.60;1.50;;;11.50;99.90;;;;;;4861550;29;20244;-72
2023/10/22 21:00:06;;;;;;;4.20;1.60;;;11.50;99.90;;;;;;4863067;29;20303;-72
2023/10/22 21:02:33;;;;;;;3.30;1.70;;;11.50;99.90;;;;;;4861769;29;20212;-71
2023/10/22 21:05:00;;;;;;;2.30;1.60;;;11.50;99.90;;;;;;4861754;29;20250;-72
2023/10/22 21:07:29;;;;;;;2.33;1.40;;;11.50;99.90;;;;;;4861808;29;20654;-72
2023/10/22 21:09:56;;;;;;;3.70;1.30;;;11.40;99.90;;;;;;4862341;29;20290;-70
2023/10/22 21:12:23;;;;;;;3.10;1.90;;;11.40;99.90;;;;;;4860974;29;20676;-70
2023/10/22 21:14:50;;;;;;;2.83;1.40;;;11.40;99.90;;;;;;4861551;29;20232;-70
2023/10/22 21:17:17;;;;;;;3.40;1.10;;;11.30;99.90;;;;;;4861034;29;20259;-69
2023/10/22 21:19:44;;;;;;;4.23;1.53;;;11.30;99.90;;;;;;4861653;29;20303;-70
2023/10/22 21:22:11;;;;;;;4.47;1.53;;;11.40;99.90;;;;;;4861406;29;20204;-70
2023/10/22 21:24:39;;;;;;;2.27;1.40;;;11.40;99.90;;;;;;4861715;29;20275;-70
2023/10/22 21:27:06;;;;;;;2.67;1.40;;;11.30;99.90;;;;;;4861863;29;20326;-70
2023/10/22 21:29:33;;;;;;;2.33;1.30;;;11.30;99.90;;;;;;4861736;29;20303;-70
